sensor_id;sensor_type;location;lat;lon;timestamp;P1;durP1;ratioP1;P2;durP2;ratioP2
17382;SDS011;8809;51.892;8.384;2022-09-14T00:00:04;1.50;;;0.60;;
17382;SDS011;8809;51.892;8.384;2022-09-14T00:02:34;0.77;;;0.50;;
17382;SDS011;8809;51.892;8.384;2022-09-14T00:05:01;2.25;;;0.68;;
17382;SDS011;8809;51.892;8.384;2022-09-14T00:07:28;2.17;;;0.60;;
17382;SDS011;8809;51.892;8.384;2022-09-14T00:09:56;0.82;;;0.60;;
17382;SDS011;8809;51.892;8.384;2022-09-14T00:12:23;0.43;;;0.43;;
17382;SDS011;8809;51.892;8.384;2022-09-14T00:14:50;1.40;;;0.70;;
17382;SDS011;8809;51.892;8.384;2022-09-14T00:17:17;0.82;;;0.40;;
17382;SDS011;8809;51.892;8.384;2022-09-14T00:19:44;1.83;;;0.60;;
17382;SDS011;8809;51.892;8.384;2022-09-14T00:22:12;1.77;;;0.60;;
17382;SDS011;8809;51.892;8.384;2022-09-14T00:24:39;0.60;;;0.55;;
17382;SDS011;8809;51.892;8.384;2022-09-14T00:27:07;0.85;;;0.47;;
17382;SDS011;8809;51.892;8.384;2022-09-14T00:29:35;0.70;;;0.57;;
17382;SDS011;8809;51.892;8.384;2022-09-14T00:32:02;1.40;;;0.50;;
17382;SDS011;8809;51.892;8.384;2022-09-14T00:34:29;1.02;;;0.70;;
17382;SDS011;8809;51.892;8.384;2022-09-14T00:36:56;0.77;;;0.50;;
17382;SDS011;8809;51.892;8.384;2022-09-14T00:39:23;1.33;;;0.52;;
17382;SDS011;8809;51.892;8.384;2022-09-14T00:41:50;0.95;;;0.50;;
17382;SDS011;8809;51.892;8.384;2022-09-14T00:47:25;1.52;;;0.50;;
17382;SDS011;8809;51.892;8.384;2022-09-14T00:49:56;0.60;;;0.60;;
17382;SDS011;8809;51.892;8.384;2022-09-14T00:52:26;0.60;;;0.40;;
17382;SDS011;8809;51.892;8.384;2022-09-14T00:54:57;0.45;;;0.40;;
17382;SDS011;8809;51.892;8.384;2022-09-14T00:57:27;1.13;;;0.50;;
17382;SDS011;8809;51.892;8.384;2022-09-14T00:59:57;0.90;;;0.55;;
17382;SDS011;8809;51.892;8.384;2022-09-14T01:02:25;1.05;;;0.52;;
17382;SDS011;8809;51.892;8.384;2022-09-14T01:04:53;0.88;;;0.60;;
17382;SDS011;8809;51.892;8.384;2022-09-14T01:07:24;1.27;;;0.60;;
17382;SDS011;8809;51.892;8.384;2022-09-14T01:10:01;1.10;;;0.50;;
17382;SDS011;8809;51.892;8.384;2022-09-14T01:12:37;1.45;;;0.50;;
17382;SDS011;8809;51.892;8.384;2022-09-14T01:15:13;0.98;;;0.50;;
17382;SDS011;8809;51.892;8.384;2022-09-14T01:20:33;1.40;;;0.60;;
17382;SDS011;8809;51.892;8.384;2022-09-14T01:23:06;2.20;;;0.50;;
17382;SDS011;8809;51.892;8.384;2022-09-14T01:25:53;0.93;;;0.60;;
17382;SDS011;8809;51.892;8.384;2022-09-14T01:28:31;0.63;;;0.40;;
17382;SDS011;8809;51.892;8.384;2022-09-14T01:31:07;1.42;;;0.50;;
17382;SDS011;8809;51.892;8.384;2022-09-14T01:33:40;1.23;;;0.60;;
17382;SDS011;8809;51.892;8.384;2022-09-14T01:36:13;0.57;;;0.50;;
17382;SDS011;8809;51.892;8.384;2022-09-14T01:38:42;2.00;;;0.60;;
17382;SDS011;8809;51.892;8.384;2022-09-14T01:41:13;0.57;;;0.40;;
17382;SDS011;8809;51.892;8.384;2022-09-14T01:43:47;0.80;;;0.45;;
17382;SDS011;8809;51.892;8.384;2022-09-14T01:46:19;1.35;;;0.50;;
17382;SDS011;8809;51.892;8.384;2022-09-14T01:48:51;0.77;;;0.50;;
17382;SDS011;8809;51.892;8.384;2022-09-14T01:51:24;1.13;;;0.60;;
17382;SDS011;8809;51.892;8.384;2022-09-14T01:53:58;1.55;;;0.60;;
17382;SDS011;8809;51.892;8.384;2022-09-14T01:56:29;1.45;;;0.50;;
17382;SDS011;8809;51.892;8.384;2022-09-14T01:59:04;0.55;;;0.30;;
17382;SDS011;8809;51.892;8.384;2022-09-14T02:01:36;0.50;;;0.45;;
17382;SDS011;8809;51.892;8.384;2022-09-14T02:04:09;0.68;;;0.43;;
17382;SDS011;8809;51.892;8.384;2022-09-14T02:06:40;0.75;;;0.50;;
17382;SDS011;8809;51.892;8.384;2022-09-14T02:09:11;1.17;;;0.60;;
17382;SDS011;8809;51.892;8.384;2022-09-14T02:11:41;0.80;;;0.60;;
17382;SDS011;8809;51.892;8.384;2022-09-14T02:14:09;0.60;;;0.50;;
17382;SDS011;8809;51.892;8.384;2022-09-14T02:16:36;0.93;;;0.57;;
17382;SDS011;8809;51.892;8.384;2022-09-14T02:19:04;0.95;;;0.68;;
17382;SDS011;8809;51.892;8.384;2022-09-14T02:21:31;1.40;;;0.50;;
17382;SDS011;8809;51.892;8.384;2022-09-14T02:23:58;1.52;;;0.55;;
17382;SDS011;8809;51.892;8.384;2022-09-14T02:26:26;1.08;;;0.57;;
17382;SDS011;8809;51.892;8.384;2022-09-14T02:28:54;0.70;;;0.40;;
17382;SDS011;8809;51.892;8.384;2022-09-14T02:31:25;0.60;;;0.40;;
17382;SDS011;8809;51.892;8.384;2022-09-14T02:34:01;0.70;;;0.50;;
17382;SDS011;8809;51.892;8.384;2022-09-14T02:36:35;0.93;;;0.57;;
17382;SDS011;8809;51.892;8.384;2022-09-14T02:39:13;1.50;;;0.57;;
17382;SDS011;8809;51.892;8.384;2022-09-14T02:41:49;0.60;;;0.60;;
17382;SDS011;8809;51.892;8.384;2022-09-14T02:44:25;0.82;;;0.65;;
17382;SDS011;8809;51.892;8.384;2022-09-14T02:47:02;0.90;;;0.43;;
17382;SDS011;8809;51.892;8.384;2022-09-14T02:49:33;0.98;;;0.55;;
17382;SDS011;8809;51.892;8.384;2022-09-14T02:52:11;1.10;;;0.50;;
17382;SDS011;8809;51.892;8.384;2022-09-14T02:54:45;1.40;;;0.45;;
17382;SDS011;8809;51.892;8.384;2022-09-14T02:57:17;1.00;;;0.65;;
17382;SDS011;8809;51.892;8.384;2022-09-14T02:59:44;0.82;;;0.50;;
17382;SDS011;8809;51.892;8.384;2022-09-14T03:02:13;0.68;;;0.55;;
17382;SDS011;8809;51.892;8.384;2022-09-14T03:04:40;0.98;;;0.50;;
17382;SDS011;8809;51.892;8.384;2022-09-14T03:07:07;0.70;;;0.40;;
17382;SDS011;8809;51.892;8.384;2022-09-14T03:09:34;0.95;;;0.45;;
17382;SDS011;8809;51.892;8.384;2022-09-14T03:12:01;0.55;;;0.55;;
17382;SDS011;8809;51.892;8.384;2022-09-14T03:14:28;2.15;;;0.60;;
17382;SDS011;8809;51.892;8.384;2022-09-14T03:16:55;1.08;;;0.43;;
17382;SDS011;8809;51.892;8.384;2022-09-14T03:19:23;0.68;;;0.50;;
17382;SDS011;8809;51.892;8.384;2022-09-14T03:21:50;1.13;;;0.70;;
17382;SDS011;8809;51.892;8.384;2022-09-14T03:24:17;0.70;;;0.50;;
17382;SDS011;8809;51.892;8.384;2022-09-14T03:26:44;0.38;;;0.38;;
17382;SDS011;8809;51.892;8.384;2022-09-14T03:29:11;0.63;;;0.50;;
17382;SDS011;8809;51.892;8.384;2022-09-14T03:31:38;0.80;;;0.60;;
17382;SDS011;8809;51.892;8.384;2022-09-14T03:34:05;0.73;;;0.50;;
17382;SDS011;8809;51.892;8.384;2022-09-14T03:36:33;1.00;;;0.70;;
17382;SDS011;8809;51.892;8.384;2022-09-14T03:39:00;0.90;;;0.50;;
17382;SDS011;8809;51.892;8.384;2022-09-14T03:41:27;0.63;;;0.57;;
17382;SDS011;8809;51.892;8.384;2022-09-14T03:43:54;1.33;;;0.60;;
17382;SDS011;8809;51.892;8.384;2022-09-14T03:46:22;0.77;;;0.60;;
17382;SDS011;8809;51.892;8.384;2022-09-14T03:48:50;0.68;;;0.50;;
17382;SDS011;8809;51.892;8.384;2022-09-14T03:51:19;0.90;;;0.60;;
17382;SDS011;8809;51.892;8.384;2022-09-14T03:53:47;0.77;;;0.65;;
17382;SDS011;8809;51.892;8.384;2022-09-14T03:56:15;0.90;;;0.50;;
17382;SDS011;8809;51.892;8.384;2022-09-14T03:58:44;0.90;;;0.50;;
17382;SDS011;8809;51.892;8.384;2022-09-14T04:01:13;1.00;;;0.57;;
17382;SDS011;8809;51.892;8.384;2022-09-14T04:03:41;0.88;;;0.60;;
17382;SDS011;8809;51.892;8.384;2022-09-14T04:06:09;1.10;;;0.60;;
17382;SDS011;8809;51.892;8.384;2022-09-14T04:08:37;1.23;;;0.60;;
17382;SDS011;8809;51.892;8.384;2022-09-14T04:11:07;1.40;;;0.50;;
17382;SDS011;8809;51.892;8.384;2022-09-14T04:13:36;0.82;;;0.60;;
17382;SDS011;8809;51.892;8.384;2022-09-14T04:16:03;1.13;;;0.60;;
17382;SDS011;8809;51.892;8.384;2022-09-14T04:18:30;0.40;;;0.40;;
17382;SDS011;8809;51.892;8.384;2022-09-14T04:20:58;1.10;;;0.60;;
17382;SDS011;8809;51.892;8.384;2022-09-14T04:23:26;1.02;;;0.55;;
17382;SDS011;8809;51.892;8.384;2022-09-14T04:25:54;0.60;;;0.50;;
17382;SDS011;8809;51.892;8.384;2022-09-14T04:28:22;1.38;;;0.60;;
17382;SDS011;8809;51.892;8.384;2022-09-14T04:30:54;1.85;;;0.70;;
17382;SDS011;8809;51.892;8.384;2022-09-14T04:33:23;0.65;;;0.50;;
17382;SDS011;8809;51.892;8.384;2022-09-14T04:35:55;1.92;;;0.75;;
17382;SDS011;8809;51.892;8.384;2022-09-14T04:38:26;1.25;;;0.60;;
17382;SDS011;8809;51.892;8.384;2022-09-14T04:40:54;0.90;;;0.60;;
17382;SDS011;8809;51.892;8.384;2022-09-14T04:43:22;1.30;;;0.70;;
17382;SDS011;8809;51.892;8.384;2022-09-14T04:45:50;0.85;;;0.60;;
17382;SDS011;8809;51.892;8.384;2022-09-14T04:48:17;0.63;;;0.57;;
17382;SDS011;8809;51.892;8.384;2022-09-14T04:50:45;1.88;;;0.70;;
17382;SDS011;8809;51.892;8.384;2022-09-14T04:53:12;0.90;;;0.70;;
17382;SDS011;8809;51.892;8.384;2022-09-14T04:55:39;1.42;;;0.60;;
17382;SDS011;8809;51.892;8.384;2022-09-14T04:58:06;0.93;;;0.60;;
17382;SDS011;8809;51.892;8.384;2022-09-14T05:00:35;1.30;;;0.70;;
17382;SDS011;8809;51.892;8.384;2022-09-14T05:03:02;1.27;;;0.80;;
17382;SDS011;8809;51.892;8.384;2022-09-14T05:05:30;1.23;;;0.60;;
17382;SDS011;8809;51.892;8.384;2022-09-14T05:08:01;1.02;;;0.77;;
17382;SDS011;8809;51.892;8.384;2022-09-14T05:10:28;1.50;;;1.08;;
17382;SDS011;8809;51.892;8.384;2022-09-14T05:12:55;1.70;;;0.85;;
17382;SDS011;8809;51.892;8.384;2022-09-14T05:15:22;0.90;;;0.65;;
17382;SDS011;8809;51.892;8.384;2022-09-14T05:17:51;2.58;;;0.80;;
17382;SDS011;8809;51.892;8.384;2022-09-14T05:20:18;1.08;;;0.70;;
17382;SDS011;8809;51.892;8.384;2022-09-14T05:22:47;1.02;;;0.70;;
17382;SDS011;8809;51.892;8.384;2022-09-14T05:25:15;1.05;;;0.75;;
17382;SDS011;8809;51.892;8.384;2022-09-14T05:27:42;2.05;;;0.98;;
17382;SDS011;8809;51.892;8.384;2022-09-14T05:30:09;2.67;;;0.93;;
17382;SDS011;8809;51.892;8.384;2022-09-14T05:32:39;1.25;;;0.80;;
17382;SDS011;8809;51.892;8.384;2022-09-14T05:35:07;1.48;;;0.95;;
17382;SDS011;8809;51.892;8.384;2022-09-14T05:37:35;2.05;;;0.90;;
17382;SDS011;8809;51.892;8.384;2022-09-14T05:40:02;1.27;;;0.82;;
17382;SDS011;8809;51.892;8.384;2022-09-14T05:42:30;2.90;;;0.88;;
17382;SDS011;8809;51.892;8.384;2022-09-14T05:44:57;1.67;;;0.80;;
17382;SDS011;8809;51.892;8.384;2022-09-14T05:47:25;0.80;;;0.80;;
17382;SDS011;8809;51.892;8.384;2022-09-14T05:49:54;0.98;;;0.80;;
17382;SDS011;8809;51.892;8.384;2022-09-14T05:52:23;2.00;;;1.02;;
17382;SDS011;8809;51.892;8.384;2022-09-14T05:54:50;1.38;;;0.90;;
17382;SDS011;8809;51.892;8.384;2022-09-14T05:57:17;1.48;;;1.00;;
17382;SDS011;8809;51.892;8.384;2022-09-14T05:59:44;1.77;;;0.85;;
17382;SDS011;8809;51.892;8.384;2022-09-14T06:02:11;2.28;;;1.02;;
17382;SDS011;8809;51.892;8.384;2022-09-14T06:04:38;1.35;;;0.82;;
17382;SDS011;8809;51.892;8.384;2022-09-14T06:07:05;0.73;;;0.70;;
17382;SDS011;8809;51.892;8.384;2022-09-14T06:09:33;0.77;;;0.73;;
17382;SDS011;8809;51.892;8.384;2022-09-14T06:12:00;1.42;;;0.80;;
17382;SDS011;8809;51.892;8.384;2022-09-14T06:14:30;2.28;;;0.80;;
17382;SDS011;8809;51.892;8.384;2022-09-14T06:16:57;1.70;;;1.00;;
17382;SDS011;8809;51.892;8.384;2022-09-14T06:19:24;1.80;;;0.90;;
17382;SDS011;8809;51.892;8.384;2022-09-14T06:21:51;1.27;;;0.80;;
17382;SDS011;8809;51.892;8.384;2022-09-14T06:24:18;1.30;;;0.70;;
17382;SDS011;8809;51.892;8.384;2022-09-14T06:26:47;1.15;;;0.80;;
17382;SDS011;8809;51.892;8.384;2022-09-14T06:29:14;1.90;;;1.05;;
17382;SDS011;8809;51.892;8.384;2022-09-14T06:31:41;1.10;;;0.80;;
17382;SDS011;8809;51.892;8.384;2022-09-14T06:34:08;0.57;;;0.57;;
17382;SDS011;8809;51.892;8.384;2022-09-14T06:36:35;1.02;;;0.88;;
17382;SDS011;8809;51.892;8.384;2022-09-14T06:39:02;2.72;;;1.00;;
17382;SDS011;8809;51.892;8.384;2022-09-14T06:41:30;2.03;;;1.00;;
17382;SDS011;8809;51.892;8.384;2022-09-14T06:44:00;0.90;;;0.90;;
17382;SDS011;8809;51.892;8.384;2022-09-14T06:46:27;2.97;;;0.88;;
17382;SDS011;8809;51.892;8.384;2022-09-14T06:48:56;2.58;;;0.90;;
17382;SDS011;8809;51.892;8.384;2022-09-14T06:51:26;1.80;;;1.10;;
17382;SDS011;8809;51.892;8.384;2022-09-14T06:53:55;1.45;;;0.70;;
17382;SDS011;8809;51.892;8.384;2022-09-14T06:56:23;1.92;;;1.00;;
17382;SDS011;8809;51.892;8.384;2022-09-14T06:58:51;1.13;;;0.73;;
17382;SDS011;8809;51.892;8.384;2022-09-14T07:01:20;0.90;;;0.77;;
17382;SDS011;8809;51.892;8.384;2022-09-14T07:03:47;0.98;;;0.70;;
17382;SDS011;8809;51.892;8.384;2022-09-14T07:06:16;1.15;;;0.90;;
17382;SDS011;8809;51.892;8.384;2022-09-14T07:08:45;2.55;;;1.10;;
17382;SDS011;8809;51.892;8.384;2022-09-14T07:11:13;1.67;;;1.10;;
17382;SDS011;8809;51.892;8.384;2022-09-14T07:13:42;1.67;;;1.00;;
17382;SDS011;8809;51.892;8.384;2022-09-14T07:16:09;1.00;;;0.80;;
17382;SDS011;8809;51.892;8.384;2022-09-14T07:18:37;3.22;;;0.90;;
17382;SDS011;8809;51.892;8.384;2022-09-14T07:21:05;1.55;;;0.70;;
17382;SDS011;8809;51.892;8.384;2022-09-14T07:23:35;1.48;;;0.85;;
17382;SDS011;8809;51.892;8.384;2022-09-14T07:26:04;2.08;;;1.00;;
17382;SDS011;8809;51.892;8.384;2022-09-14T07:28:34;1.00;;;0.90;;
17382;SDS011;8809;51.892;8.384;2022-09-14T07:31:02;1.45;;;0.98;;
17382;SDS011;8809;51.892;8.384;2022-09-14T07:33:30;1.30;;;0.90;;
17382;SDS011;8809;51.892;8.384;2022-09-14T07:36:04;1.02;;;0.80;;
17382;SDS011;8809;51.892;8.384;2022-09-14T07:38:32;1.55;;;0.73;;
17382;SDS011;8809;51.892;8.384;2022-09-14T07:41:00;0.85;;;0.60;;
17382;SDS011;8809;51.892;8.384;2022-09-14T07:43:27;1.42;;;0.90;;
17382;SDS011;8809;51.892;8.384;2022-09-14T07:45:54;0.70;;;0.70;;
17382;SDS011;8809;51.892;8.384;2022-09-14T07:48:21;2.90;;;1.85;;
17382;SDS011;8809;51.892;8.384;2022-09-14T07:50:57;3.13;;;1.67;;
17382;SDS011;8809;51.892;8.384;2022-09-14T07:53:27;2.38;;;1.50;;
17382;SDS011;8809;51.892;8.384;2022-09-14T07:55:57;1.95;;;1.10;;
17382;SDS011;8809;51.892;8.384;2022-09-14T07:58:25;1.77;;;1.20;;
17382;SDS011;8809;51.892;8.384;2022-09-14T08:00:56;1.73;;;1.10;;
17382;SDS011;8809;51.892;8.384;2022-09-14T08:03:24;2.08;;;1.08;;
17382;SDS011;8809;51.892;8.384;2022-09-14T08:05:56;2.47;;;1.00;;
17382;SDS011;8809;51.892;8.384;2022-09-14T08:08:28;1.65;;;0.82;;
17382;SDS011;8809;51.892;8.384;2022-09-14T08:11:01;1.92;;;0.90;;
17382;SDS011;8809;51.892;8.384;2022-09-14T08:13:30;1.40;;;0.90;;
17382;SDS011;8809;51.892;8.384;2022-09-14T08:15:58;2.28;;;1.02;;
17382;SDS011;8809;51.892;8.384;2022-09-14T08:18:26;0.98;;;0.70;;
17382;SDS011;8809;51.892;8.384;2022-09-14T08:20:53;1.50;;;1.00;;
17382;SDS011;8809;51.892;8.384;2022-09-14T08:23:20;0.85;;;0.70;;
17382;SDS011;8809;51.892;8.384;2022-09-14T08:25:49;0.70;;;0.60;;
17382;SDS011;8809;51.892;8.384;2022-09-14T08:28:17;0.93;;;0.73;;
17382;SDS011;8809;51.892;8.384;2022-09-14T08:30:46;1.35;;;0.85;;
17382;SDS011;8809;51.892;8.384;2022-09-14T08:33:13;0.95;;;0.80;;
17382;SDS011;8809;51.892;8.384;2022-09-14T08:35:41;1.48;;;1.08;;
17382;SDS011;8809;51.892;8.384;2022-09-14T08:38:08;1.13;;;0.90;;
17382;SDS011;8809;51.892;8.384;2022-09-14T08:40:41;1.40;;;1.08;;
17382;SDS011;8809;51.892;8.384;2022-09-14T08:43:11;1.48;;;0.80;;
17382;SDS011;8809;51.892;8.384;2022-09-14T08:45:39;2.45;;;1.10;;
17382;SDS011;8809;51.892;8.384;2022-09-14T08:48:10;1.33;;;1.15;;
17382;SDS011;8809;51.892;8.384;2022-09-14T08:50:45;2.08;;;1.20;;
17382;SDS011;8809;51.892;8.384;2022-09-14T08:53:13;1.80;;;1.10;;
17382;SDS011;8809;51.892;8.384;2022-09-14T08:55:41;1.77;;;1.15;;
17382;SDS011;8809;51.892;8.384;2022-09-14T08:58:17;2.17;;;1.35;;
17382;SDS011;8809;51.892;8.384;2022-09-14T09:01:00;1.42;;;0.90;;
17382;SDS011;8809;51.892;8.384;2022-09-14T09:06:25;2.80;;;1.42;;
17382;SDS011;8809;51.892;8.384;2022-09-14T09:09:01;1.88;;;1.20;;
17382;SDS011;8809;51.892;8.384;2022-09-14T09:11:35;1.92;;;1.20;;
17382;SDS011;8809;51.892;8.384;2022-09-14T09:14:11;1.60;;;1.13;;
17382;SDS011;8809;51.892;8.384;2022-09-14T09:16:44;1.52;;;1.00;;
17382;SDS011;8809;51.892;8.384;2022-09-14T09:19:15;2.17;;;1.40;;
17382;SDS011;8809;51.892;8.384;2022-09-14T09:21:46;3.63;;;1.40;;
17382;SDS011;8809;51.892;8.384;2022-09-14T09:24:19;3.50;;;1.20;;
17382;SDS011;8809;51.892;8.384;2022-09-14T09:26:51;2.90;;;1.30;;
17382;SDS011;8809;51.892;8.384;2022-09-14T09:29:20;1.83;;;1.00;;
17382;SDS011;8809;51.892;8.384;2022-09-14T09:31:48;1.50;;;1.00;;
17382;SDS011;8809;51.892;8.384;2022-09-14T09:34:20;1.73;;;1.30;;
17382;SDS011;8809;51.892;8.384;2022-09-14T09:36:51;1.50;;;1.00;;
17382;SDS011;8809;51.892;8.384;2022-09-14T09:39:21;1.30;;;1.00;;
17382;SDS011;8809;51.892;8.384;2022-09-14T09:41:52;1.27;;;0.70;;
17382;SDS011;8809;51.892;8.384;2022-09-14T09:44:24;1.67;;;0.80;;
17382;SDS011;8809;51.892;8.384;2022-09-14T09:46:52;1.63;;;0.80;;
17382;SDS011;8809;51.892;8.384;2022-09-14T09:49:21;1.52;;;0.80;;
17382;SDS011;8809;51.892;8.384;2022-09-14T09:51:50;1.35;;;0.77;;
17382;SDS011;8809;51.892;8.384;2022-09-14T09:54:22;2.58;;;0.70;;
17382;SDS011;8809;51.892;8.384;2022-09-14T09:56:53;2.30;;;0.68;;
17382;SDS011;8809;51.892;8.384;2022-09-14T09:59:31;1.75;;;1.00;;
17382;SDS011;8809;51.892;8.384;2022-09-14T10:02:18;1.13;;;0.80;;
17382;SDS011;8809;51.892;8.384;2022-09-14T10:04:55;1.75;;;0.80;;
17382;SDS011;8809;51.892;8.384;2022-09-14T10:07:24;0.60;;;0.60;;
17382;SDS011;8809;51.892;8.384;2022-09-14T10:10:01;1.80;;;0.80;;
17382;SDS011;8809;51.892;8.384;2022-09-14T10:12:35;2.05;;;0.70;;
17382;SDS011;8809;51.892;8.384;2022-09-14T10:15:14;1.15;;;0.60;;
17382;SDS011;8809;51.892;8.384;2022-09-14T10:17:54;1.45;;;0.82;;
17382;SDS011;8809;51.892;8.384;2022-09-14T10:20:27;0.63;;;0.60;;
17382;SDS011;8809;51.892;8.384;2022-09-14T10:22:54;1.50;;;0.70;;
17382;SDS011;8809;51.892;8.384;2022-09-14T10:25:22;1.00;;;0.60;;
17382;SDS011;8809;51.892;8.384;2022-09-14T10:27:58;0.60;;;0.60;;
17382;SDS011;8809;51.892;8.384;2022-09-14T10:30:28;1.30;;;0.60;;
17382;SDS011;8809;51.892;8.384;2022-09-14T10:33:00;1.90;;;0.82;;
17382;SDS011;8809;51.892;8.384;2022-09-14T10:35:33;1.98;;;0.80;;
17382;SDS011;8809;51.892;8.384;2022-09-14T10:38:09;1.13;;;0.70;;
17382;SDS011;8809;51.892;8.384;2022-09-14T10:40:51;1.00;;;0.63;;
17382;SDS011;8809;51.892;8.384;2022-09-14T10:43:28;1.23;;;0.60;;
17382;SDS011;8809;51.892;8.384;2022-09-14T10:46:11;1.17;;;0.70;;
17382;SDS011;8809;51.892;8.384;2022-09-14T10:48:49;1.48;;;0.70;;
17382;SDS011;8809;51.892;8.384;2022-09-14T10:51:32;1.85;;;0.80;;
17382;SDS011;8809;51.892;8.384;2022-09-14T10:54:15;1.38;;;0.70;;
17382;SDS011;8809;51.892;8.384;2022-09-14T10:57:05;2.13;;;0.82;;
17382;SDS011;8809;51.892;8.384;2022-09-14T10:59:42;0.80;;;0.70;;
17382;SDS011;8809;51.892;8.384;2022-09-14T11:02:24;1.25;;;0.80;;
17382;SDS011;8809;51.892;8.384;2022-09-14T11:05:11;1.92;;;0.80;;
17382;SDS011;8809;51.892;8.384;2022-09-14T11:07:43;1.63;;;0.95;;
17382;SDS011;8809;51.892;8.384;2022-09-14T11:10:19;1.67;;;0.95;;
17382;SDS011;8809;51.892;8.384;2022-09-14T11:12:55;1.98;;;0.90;;
17382;SDS011;8809;51.892;8.384;2022-09-14T11:15:43;2.88;;;1.05;;
17382;SDS011;8809;51.892;8.384;2022-09-14T11:18:23;2.00;;;0.80;;
17382;SDS011;8809;51.892;8.384;2022-09-14T11:21:01;1.50;;;0.80;;
17382;SDS011;8809;51.892;8.384;2022-09-14T11:23:37;1.50;;;1.10;;
17382;SDS011;8809;51.892;8.384;2022-09-14T11:26:12;1.33;;;0.73;;
17382;SDS011;8809;51.892;8.384;2022-09-14T11:28:45;1.92;;;0.80;;
17382;SDS011;8809;51.892;8.384;2022-09-14T11:31:18;1.85;;;0.93;;
17382;SDS011;8809;51.892;8.384;2022-09-14T11:33:53;2.50;;;1.10;;
17382;SDS011;8809;51.892;8.384;2022-09-14T11:36:24;1.77;;;1.00;;
17382;SDS011;8809;51.892;8.384;2022-09-14T11:38:58;0.93;;;0.88;;
17382;SDS011;8809;51.892;8.384;2022-09-14T11:41:29;1.40;;;0.85;;
17382;SDS011;8809;51.892;8.384;2022-09-14T11:44:05;1.90;;;1.13;;
17382;SDS011;8809;51.892;8.384;2022-09-14T11:46:40;1.20;;;1.00;;
17382;SDS011;8809;51.892;8.384;2022-09-14T11:49:14;1.00;;;0.90;;
17382;SDS011;8809;51.892;8.384;2022-09-14T11:51:46;2.20;;;0.93;;
17382;SDS011;8809;51.892;8.384;2022-09-14T11:54:19;1.27;;;0.70;;
17382;SDS011;8809;51.892;8.384;2022-09-14T11:56:48;1.55;;;1.00;;
17382;SDS011;8809;51.892;8.384;2022-09-14T12:05:25;1.02;;;0.93;;
17382;SDS011;8809;51.892;8.384;2022-09-14T12:08:04;1.50;;;0.98;;
17382;SDS011;8809;51.892;8.384;2022-09-14T12:11:02;1.77;;;0.90;;
17382;SDS011;8809;51.892;8.384;2022-09-14T12:13:49;1.00;;;0.85;;
17382;SDS011;8809;51.892;8.384;2022-09-14T12:19:41;1.67;;;1.00;;
17382;SDS011;8809;51.892;8.384;2022-09-14T12:25:02;1.52;;;0.88;;
17382;SDS011;8809;51.892;8.384;2022-09-14T12:27:32;2.72;;;0.95;;
17382;SDS011;8809;51.892;8.384;2022-09-14T12:30:02;2.38;;;0.80;;
17382;SDS011;8809;51.892;8.384;2022-09-14T12:32:49;2.38;;;0.93;;
17382;SDS011;8809;51.892;8.384;2022-09-14T12:44:27;2.13;;;1.08;;
17382;SDS011;8809;51.892;8.384;2022-09-14T12:46:56;1.38;;;1.00;;
17382;SDS011;8809;51.892;8.384;2022-09-14T12:49:25;2.35;;;1.10;;
17382;SDS011;8809;51.892;8.384;2022-09-14T12:51:54;2.00;;;1.00;;
17382;SDS011;8809;51.892;8.384;2022-09-14T12:54:28;2.20;;;0.88;;
17382;SDS011;8809;51.892;8.384;2022-09-14T12:57:07;2.42;;;1.05;;
17382;SDS011;8809;51.892;8.384;2022-09-14T12:59:46;1.13;;;0.90;;
17382;SDS011;8809;51.892;8.384;2022-09-14T13:05:26;1.58;;;0.70;;
17382;SDS011;8809;51.892;8.384;2022-09-14T13:07:55;1.08;;;0.98;;
17382;SDS011;8809;51.892;8.384;2022-09-14T13:10:25;2.05;;;1.08;;
17382;SDS011;8809;51.892;8.384;2022-09-14T13:12:56;2.17;;;0.82;;
17382;SDS011;8809;51.892;8.384;2022-09-14T13:15:26;1.00;;;0.90;;
17382;SDS011;8809;51.892;8.384;2022-09-14T13:17:57;1.50;;;0.90;;
17382;SDS011;8809;51.892;8.384;2022-09-14T13:20:25;1.10;;;0.77;;
17382;SDS011;8809;51.892;8.384;2022-09-14T13:22:53;1.50;;;0.90;;
17382;SDS011;8809;51.892;8.384;2022-09-14T13:25:26;1.92;;;0.82;;
17382;SDS011;8809;51.892;8.384;2022-09-14T13:27:59;1.17;;;0.80;;
17382;SDS011;8809;51.892;8.384;2022-09-14T13:30:28;1.77;;;0.70;;
17382;SDS011;8809;51.892;8.384;2022-09-14T13:32:57;1.90;;;0.90;;
17382;SDS011;8809;51.892;8.384;2022-09-14T13:35:27;1.52;;;0.70;;
17382;SDS011;8809;51.892;8.384;2022-09-14T13:38:04;1.15;;;0.85;;
17382;SDS011;8809;51.892;8.384;2022-09-14T13:40:37;2.63;;;0.90;;
17382;SDS011;8809;51.892;8.384;2022-09-14T13:43:04;1.27;;;0.80;;
17382;SDS011;8809;51.892;8.384;2022-09-14T13:45:32;2.17;;;0.93;;
17382;SDS011;8809;51.892;8.384;2022-09-14T13:48:01;1.88;;;0.90;;
17382;SDS011;8809;51.892;8.384;2022-09-14T13:50:30;1.08;;;0.98;;
17382;SDS011;8809;51.892;8.384;2022-09-14T13:52:59;1.08;;;0.75;;
17382;SDS011;8809;51.892;8.384;2022-09-14T13:55:27;1.90;;;1.02;;
17382;SDS011;8809;51.892;8.384;2022-09-14T13:58:13;1.40;;;0.80;;
17382;SDS011;8809;51.892;8.384;2022-09-14T14:00:49;1.65;;;0.85;;
17382;SDS011;8809;51.892;8.384;2022-09-14T14:03:27;2.35;;;1.00;;
17382;SDS011;8809;51.892;8.384;2022-09-14T14:05:56;1.15;;;0.80;;
17382;SDS011;8809;51.892;8.384;2022-09-14T14:08:26;1.13;;;0.80;;
17382;SDS011;8809;51.892;8.384;2022-09-14T14:10:57;1.42;;;0.70;;
17382;SDS011;8809;51.892;8.384;2022-09-14T14:13:27;1.42;;;0.70;;
17382;SDS011;8809;51.892;8.384;2022-09-14T14:16:13;1.58;;;0.77;;
17382;SDS011;8809;51.892;8.384;2022-09-14T14:18:41;1.10;;;0.80;;
17382;SDS011;8809;51.892;8.384;2022-09-14T14:21:16;2.40;;;0.80;;
17382;SDS011;8809;51.892;8.384;2022-09-14T14:23:53;3.25;;;0.80;;
17382;SDS011;8809;51.892;8.384;2022-09-14T14:26:46;1.95;;;0.90;;
17382;SDS011;8809;51.892;8.384;2022-09-14T14:29:15;1.50;;;0.77;;
17382;SDS011;8809;51.892;8.384;2022-09-14T14:31:43;1.40;;;1.00;;
17382;SDS011;8809;51.892;8.384;2022-09-14T14:34:15;1.50;;;0.80;;
17382;SDS011;8809;51.892;8.384;2022-09-14T14:36:44;1.83;;;0.95;;
17382;SDS011;8809;51.892;8.384;2022-09-14T14:39:12;2.25;;;0.85;;
17382;SDS011;8809;51.892;8.384;2022-09-14T14:41:39;1.20;;;0.80;;
17382;SDS011;8809;51.892;8.384;2022-09-14T14:44:07;0.85;;;0.80;;
17382;SDS011;8809;51.892;8.384;2022-09-14T14:46:41;1.92;;;1.00;;
17382;SDS011;8809;51.892;8.384;2022-09-14T14:49:09;1.20;;;0.80;;
17382;SDS011;8809;51.892;8.384;2022-09-14T14:51:37;2.35;;;0.90;;
17382;SDS011;8809;51.892;8.384;2022-09-14T14:54:04;1.35;;;0.82;;
17382;SDS011;8809;51.892;8.384;2022-09-14T14:56:32;0.52;;;0.52;;
17382;SDS011;8809;51.892;8.384;2022-09-14T14:59:00;0.98;;;0.80;;
17382;SDS011;8809;51.892;8.384;2022-09-14T15:01:27;2.30;;;1.27;;
17382;SDS011;8809;51.892;8.384;2022-09-14T15:03:55;1.70;;;0.82;;
17382;SDS011;8809;51.892;8.384;2022-09-14T15:06:25;2.75;;;0.77;;
17382;SDS011;8809;51.892;8.384;2022-09-14T15:08:53;1.10;;;0.90;;
17382;SDS011;8809;51.892;8.384;2022-09-14T15:11:21;1.90;;;0.90;;
17382;SDS011;8809;51.892;8.384;2022-09-14T15:13:48;1.95;;;0.93;;
17382;SDS011;8809;51.892;8.384;2022-09-14T15:16:15;1.45;;;0.85;;
17382;SDS011;8809;51.892;8.384;2022-09-14T15:18:43;0.82;;;0.70;;
17382;SDS011;8809;51.892;8.384;2022-09-14T15:21:12;1.63;;;1.15;;
17382;SDS011;8809;51.892;8.384;2022-09-14T15:23:38;1.52;;;0.90;;
17382;SDS011;8809;51.892;8.384;2022-09-14T15:26:06;1.85;;;1.42;;
17382;SDS011;8809;51.892;8.384;2022-09-14T15:28:33;1.73;;;1.13;;
17382;SDS011;8809;51.892;8.384;2022-09-14T15:31:03;2.65;;;1.27;;
17382;SDS011;8809;51.892;8.384;2022-09-14T15:33:31;1.23;;;1.10;;
17382;SDS011;8809;51.892;8.384;2022-09-14T15:35:59;2.55;;;1.48;;
17382;SDS011;8809;51.892;8.384;2022-09-14T15:38:28;1.75;;;1.30;;
17382;SDS011;8809;51.892;8.384;2022-09-14T15:40:55;2.45;;;1.30;;
17382;SDS011;8809;51.892;8.384;2022-09-14T15:43:22;1.45;;;1.35;;
17382;SDS011;8809;51.892;8.384;2022-09-14T15:45:49;1.65;;;1.52;;
17382;SDS011;8809;51.892;8.384;2022-09-14T15:48:16;1.40;;;1.30;;
17382;SDS011;8809;51.892;8.384;2022-09-14T15:50:44;1.88;;;1.30;;
17382;SDS011;8809;51.892;8.384;2022-09-14T15:53:14;2.95;;;1.20;;